createdAt,value
2022-10-09T00:00:58.012Z,7.88
2022-10-09T00:01:58.001Z,7.94
2022-10-09T00:02:57.955Z,7.94
2022-10-09T00:03:57.935Z,7.97
2022-10-09T00:04:57.954Z,7.97
2022-10-09T00:05:57.839Z,7.97
2022-10-09T00:06:57.803Z,7.98
2022-10-09T00:07:57.782Z,7.93
2022-10-09T00:08:57.755Z,7.95
2022-10-09T00:09:57.695Z,7.91
2022-10-09T00:10:57.718Z,7.91
2022-10-09T00:11:57.629Z,7.94
2022-10-09T00:12:57.589Z,7.82
2022-10-09T00:13:57.563Z,7.80
2022-10-09T00:14:57.580Z,7.76
2022-10-09T00:15:57.534Z,7.88
2022-10-09T00:16:57.583Z,7.87
2022-10-09T00:17:57.417Z,7.73
2022-10-09T00:18:57.382Z,7.79
2022-10-09T00:19:57.349Z,7.85
2022-10-09T00:20:57.319Z,7.79
2022-10-09T00:21:57.272Z,7.79
2022-10-09T00:22:57.300Z,7.75
2022-10-09T00:23:57.209Z,7.75
2022-10-09T00:24:57.231Z,7.70
2022-10-09T00:25:57.140Z,7.66
2022-10-09T00:26:57.101Z,7.63
2022-10-09T00:27:57.065Z,7.70
2022-10-09T00:28:57.159Z,7.73
2022-10-09T00:29:57.120Z,7.80
2022-10-09T00:30:57.016Z,7.79
2022-10-09T00:31:56.944Z,7.79
2022-10-09T00:32:56.903Z,7.82
2022-10-09T00:33:56.858Z,7.76
2022-10-09T00:34:56.827Z,7.70
2022-10-09T00:35:56.866Z,7.73
2022-10-09T00:36:56.756Z,7.70
2022-10-09T00:37:56.715Z,7.67
2022-10-09T00:38:56.680Z,7.61
2022-10-09T00:39:56.658Z,7.61
2022-10-09T00:40:56.608Z,7.56
2022-10-09T00:41:56.637Z,7.61
2022-10-09T00:42:56.533Z,7.63
2022-10-09T00:43:56.508Z,7.69
2022-10-09T00:44:56.465Z,7.60
2022-10-09T00:45:56.502Z,7.58
2022-10-09T00:46:56.476Z,7.56
2022-10-09T00:47:56.381Z,7.56
2022-10-09T00:48:56.326Z,7.53
2022-10-09T00:49:56.295Z,7.58
2022-10-09T00:50:56.254Z,7.58
2022-10-09T00:51:56.305Z,7.58
2022-10-09T00:52:56.186Z,7.54
2022-10-09T00:53:56.162Z,7.60
2022-10-09T00:54:56.113Z,7.63
2022-10-09T00:55:56.090Z,7.57
2022-10-09T00:56:56.043Z,7.66
2022-10-09T00:57:56.079Z,7.66
2022-10-09T00:58:56.194Z,7.60
2022-10-09T00:59:55.943Z,7.63
2022-10-09T01:00:55.952Z,7.63
2022-10-09T01:01:55.995Z,7.63
2022-10-09T01:02:55.898Z,7.57
2022-10-09T01:03:55.863Z,7.56
2022-10-09T01:04:55.778Z,7.63
2022-10-09T01:05:55.730Z,7.60
2022-10-09T01:06:55.780Z,7.63
2022-10-09T01:07:55.662Z,7.60
2022-10-09T01:08:55.639Z,7.53
2022-10-09T01:09:55.614Z,7.60
2022-10-09T01:10:55.557Z,7.53
2022-10-09T01:11:55.524Z,7.54
2022-10-09T01:12:55.539Z,7.60
2022-10-09T01:13:55.445Z,7.54
2022-10-09T01:14:55.415Z,7.56
2022-10-09T01:15:55.460Z,7.57
2022-10-09T01:16:55.345Z,7.56
2022-10-09T01:17:55.373Z,7.53
2022-10-09T01:18:55.311Z,7.53
2022-10-09T01:19:55.306Z,7.51
2022-10-09T01:20:55.223Z,7.45
2022-10-09T01:21:55.288Z,7.45
2022-10-09T01:22:55.141Z,7.50
2022-10-09T01:23:55.099Z,7.45
2022-10-09T01:24:55.063Z,7.47
2022-10-09T01:25:55.078Z,7.51
2022-10-09T01:26:55.007Z,7.48
2022-10-09T01:27:54.954Z,7.42
2022-10-09T01:28:55.031Z,7.45
2022-10-09T01:29:54.882Z,7.43
2022-10-09T01:30:54.954Z,7.38
2022-10-09T01:31:54.834Z,7.36
2022-10-09T01:32:54.780Z,7.33
2022-10-09T01:33:54.748Z,7.38
2022-10-09T01:34:54.792Z,7.31
2022-10-09T01:35:54.699Z,7.29
2022-10-09T01:36:54.645Z,7.31
2022-10-09T01:37:54.605Z,7.28
2022-10-09T01:38:54.562Z,7.28
2022-10-09T01:39:54.534Z,7.21
2022-10-09T01:40:54.574Z,7.25
2022-10-09T01:41:54.462Z,7.14
2022-10-09T01:42:54.430Z,7.13
2022-10-09T01:43:54.477Z,7.14
2022-10-09T01:44:54.361Z,7.20
2022-10-09T01:45:54.385Z,7.06
2022-10-09T01:46:54.293Z,7.06
2022-10-09T01:47:54.266Z,7.06
2022-10-09T01:48:54.229Z,7.18
2022-10-09T01:49:54.234Z,7.14
2022-10-09T01:50:54.197Z,7.13
2022-10-09T01:51:54.108Z,7.14
2022-10-09T01:52:54.147Z,7.11
2022-10-09T01:53:54.059Z,7.13
2022-10-09T01:54:54.321Z,7.11
2022-10-09T01:55:53.976Z,7.15
2022-10-09T01:56:53.932Z,7.15
2022-10-09T01:57:53.900Z,7.15
2022-10-09T01:58:53.868Z,7.11
2022-10-09T01:59:53.893Z,7.07
2022-10-09T02:00:53.801Z,7.10
2022-10-09T02:01:53.901Z,7.10
2022-10-09T02:02:54.002Z,7.17
2022-10-09T02:03:53.691Z,7.15
2022-10-09T02:04:53.658Z,7.11
2022-10-09T02:05:53.679Z,7.11
2022-10-09T02:06:53.589Z,7.10
2022-10-09T02:07:53.553Z,7.15
2022-10-09T02:08:53.511Z,7.07
2022-10-09T02:09:53.476Z,7.11
2022-10-09T02:10:53.523Z,7.05
2022-10-09T02:11:53.410Z,7.02
2022-10-09T02:12:53.368Z,7.03
2022-10-09T02:13:53.338Z,7.07
2022-10-09T02:14:53.302Z,6.96
2022-10-09T02:15:53.343Z,7.05
2022-10-09T02:16:53.291Z,7.05
2022-10-09T02:17:53.198Z,7.00
2022-10-09T02:18:53.159Z,7.06
2022-10-09T02:19:53.123Z,6.97
2022-10-09T02:20:53.088Z,6.96
2022-10-09T02:21:54.480Z,7.00
2022-10-09T02:22:53.022Z,7.03
2022-10-09T02:23:52.988Z,6.97
2022-10-09T02:24:52.947Z,6.93
2022-10-09T02:25:52.916Z,6.89
2022-10-09T02:26:52.971Z,6.88
2022-10-09T02:27:52.841Z,6.85
2022-10-09T02:28:52.893Z,6.93
2022-10-09T02:29:52.776Z,6.93
2022-10-09T02:30:52.780Z,6.87
2022-10-09T02:31:52.768Z,6.92
2022-10-09T02:32:52.663Z,6.88
2022-10-09T02:33:52.635Z,6.77
2022-10-09T02:34:52.596Z,6.85
2022-10-09T02:35:52.558Z,6.84
2022-10-09T02:36:52.519Z,6.84
2022-10-09T02:37:52.547Z,6.84
2022-10-09T02:38:52.478Z,6.85
2022-10-09T02:39:52.418Z,6.85
2022-10-09T02:40:52.383Z,6.79
2022-10-09T02:41:52.455Z,6.84
2022-10-09T02:42:52.308Z,6.85
2022-10-09T02:43:52.275Z,6.82
2022-10-09T02:44:52.242Z,6.85
2022-10-09T02:45:52.211Z,6.81
2022-10-09T02:46:52.274Z,6.88
2022-10-09T02:47:52.135Z,6.93
2022-10-09T02:48:52.101Z,6.93
2022-10-09T02:49:52.070Z,6.87
2022-10-09T02:50:52.020Z,6.92
2022-10-09T02:51:52.060Z,6.84
2022-10-09T02:52:52.043Z,6.92
2022-10-09T02:53:51.922Z,6.93
2022-10-09T02:54:51.881Z,6.87
2022-10-09T02:55:51.843Z,6.89
2022-10-09T02:56:51.811Z,6.95
2022-10-09T02:57:51.821Z,6.87
2022-10-09T02:58:51.739Z,6.88
2022-10-09T02:59:51.764Z,6.74
2022-10-09T03:00:51.670Z,6.57
2022-10-09T03:01:51.737Z,6.78
2022-10-09T03:02:52.279Z,6.49
2022-10-09T03:03:51.567Z,6.51
2022-10-09T03:04:51.530Z,6.48
2022-10-09T03:05:51.540Z,6.36
2022-10-09T03:06:51.488Z,6.30
2022-10-09T03:07:51.456Z,6.27
2022-10-09T03:08:51.442Z,6.27
2022-10-09T03:09:51.354Z,6.20
2022-10-09T03:10:51.315Z,6.12
2022-10-09T03:11:51.278Z,6.08
2022-10-09T03:12:51.659Z,6.12
2022-10-09T03:13:51.270Z,5.99
2022-10-09T03:14:51.170Z,5.98
2022-10-09T03:15:51.290Z,6.08
2022-10-09T03:16:51.105Z,5.94
2022-10-09T03:17:51.067Z,5.90
2022-10-09T03:18:51.034Z,5.90
2022-10-09T03:19:51.048Z,5.80
2022-10-09T03:20:50.956Z,5.94
2022-10-09T03:21:50.930Z,5.83
2022-10-09T03:22:51.353Z,5.84
2022-10-09T03:23:50.857Z,5.75
2022-10-09T03:24:50.828Z,5.76
2022-10-09T03:25:50.850Z,5.71
2022-10-09T03:26:50.748Z,5.65
2022-10-09T03:27:50.708Z,5.68
2022-10-09T03:28:50.726Z,5.68
2022-10-09T03:29:50.637Z,5.66
2022-10-09T03:30:50.609Z,5.61
2022-10-09T03:31:52.863Z,5.64
2022-10-09T03:32:50.784Z,5.65
2022-10-09T03:33:50.498Z,5.57
2022-10-09T03:34:50.459Z,5.56
2022-10-09T03:35:50.446Z,5.53
2022-10-09T03:36:50.387Z,5.47
2022-10-09T03:37:50.407Z,5.53
2022-10-09T03:38:50.327Z,5.59
2022-10-09T03:39:50.281Z,5.50
2022-10-09T03:40:50.243Z,5.48
2022-10-09T03:41:50.207Z,5.39
2022-10-09T03:42:50.513Z,5.44
2022-10-09T03:43:50.206Z,5.47
2022-10-09T03:44:50.102Z,5.46
2022-10-09T03:45:50.072Z,5.41
2022-10-09T03:46:50.077Z,5.36
2022-10-09T03:47:49.993Z,5.36
2022-10-09T03:48:49.951Z,5.39
2022-10-09T03:49:49.973Z,5.39
2022-10-09T03:50:49.883Z,5.43
2022-10-09T03:51:49.865Z,5.38
2022-10-09T03:52:50.145Z,5.41
2022-10-09T03:53:49.775Z,5.43
2022-10-09T03:54:49.741Z,5.46
2022-10-09T03:55:49.772Z,5.41
2022-10-09T03:56:49.668Z,5.47
2022-10-09T03:57:49.638Z,5.51
2022-10-09T03:58:49.597Z,5.51
2022-10-09T03:59:49.565Z,5.51
2022-10-09T04:00:49.565Z,5.57
2022-10-09T04:01:49.547Z,5.76
2022-10-09T04:02:49.710Z,5.71
2022-10-09T04:03:49.420Z,5.82
2022-10-09T04:04:49.440Z,5.83
2022-10-09T04:05:49.353Z,5.90
2022-10-09T04:06:49.310Z,5.90
2022-10-09T04:07:49.281Z,5.93
2022-10-09T04:08:49.266Z,5.84
2022-10-09T04:09:49.274Z,5.93
2022-10-09T04:10:49.175Z,5.71
2022-10-09T04:11:49.132Z,5.68
2022-10-09T04:12:49.326Z,5.65
2022-10-09T04:13:49.057Z,5.61
2022-10-09T04:14:49.022Z,5.51
2022-10-09T04:15:49.032Z,5.56
2022-10-09T04:16:48.947Z,5.48
2022-10-09T04:17:48.915Z,5.41
2022-10-09T04:18:48.886Z,5.38
2022-10-09T04:19:48.865Z,5.35
2022-10-09T04:20:48.955Z,5.20
2022-10-09T04:21:48.776Z,5.23
2022-10-09T04:22:48.981Z,5.25
2022-10-09T04:23:48.699Z,5.32
2022-10-09T04:24:48.659Z,5.29
2022-10-09T04:25:48.626Z,5.28
2022-10-09T04:26:48.663Z,5.28
2022-10-09T04:27:48.552Z,5.32
2022-10-09T04:28:48.552Z,5.21
2022-10-09T04:29:48.496Z,5.20
2022-10-09T04:30:48.446Z,5.21
2022-10-09T04:31:48.493Z,5.25
2022-10-09T04:32:48.772Z,5.18
2022-10-09T04:33:48.335Z,5.17
2022-10-09T04:34:48.303Z,5.11
2022-10-09T04:35:48.263Z,5.14
2022-10-09T04:36:48.234Z,5.14
2022-10-09T04:37:48.194Z,5.14
2022-10-09T04:38:48.223Z,5.14
2022-10-09T04:39:48.121Z,5.05
2022-10-09T04:40:48.097Z,5.02
2022-10-09T04:41:48.055Z,5.02
2022-10-09T04:42:48.380Z,5.02
2022-10-09T04:43:47.983Z,5.08
2022-10-09T04:44:48.263Z,5.00
2022-10-09T04:45:47.975Z,5.02
2022-10-09T04:46:47.861Z,4.99
2022-10-09T04:47:47.837Z,4.92
2022-10-09T04:48:47.794Z,4.92
2022-10-09T04:49:47.762Z,4.84
2022-10-09T04:50:47.791Z,4.94
2022-10-09T04:51:47.694Z,4.92
2022-10-09T04:52:47.930Z,4.86
2022-10-09T04:53:47.621Z,4.94
2022-10-09T04:54:47.576Z,4.89
2022-10-09T04:55:47.543Z,4.90
2022-10-09T04:56:47.564Z,4.89
2022-10-09T04:57:47.469Z,4.87
2022-10-09T04:58:47.429Z,4.87
2022-10-09T04:59:47.405Z,4.92
2022-10-09T05:00:47.448Z,4.87
2022-10-09T05:01:47.443Z,4.82
2022-10-09T05:02:47.652Z,4.86
2022-10-09T05:03:47.335Z,4.82
2022-10-09T05:04:47.213Z,4.80
2022-10-09T05:05:47.182Z,4.73
2022-10-09T05:06:47.144Z,4.71
2022-10-09T05:07:47.107Z,4.82
2022-10-09T05:08:47.070Z,4.73
2022-10-09T05:09:47.091Z,4.68
2022-10-09T05:10:46.993Z,4.63
2022-10-09T05:11:46.963Z,4.67
2022-10-09T05:12:47.295Z,4.70
2022-10-09T05:13:46.891Z,4.67
2022-10-09T05:14:46.915Z,4.70
2022-10-09T05:15:46.816Z,4.66
2022-10-09T05:17:11.978Z,4.73
2022-10-09T05:17:46.743Z,4.70
2022-10-09T05:18:46.707Z,4.70
2022-10-09T05:19:46.728Z,4.75
2022-10-09T05:20:46.638Z,4.75
2022-10-09T05:21:46.606Z,4.77
2022-10-09T05:22:46.827Z,4.77
2022-10-09T05:23:46.530Z,4.71
2022-10-09T05:24:46.563Z,4.80
2022-10-09T05:25:46.454Z,4.80
2022-10-09T05:26:46.419Z,4.77
2022-10-09T05:27:46.386Z,4.80
2022-10-09T05:28:46.428Z,4.70
2022-10-09T05:29:46.369Z,4.77
2022-10-09T05:30:46.269Z,4.87
2022-10-09T05:31:49.484Z,4.73
2022-10-09T05:32:46.411Z,4.74
2022-10-09T05:33:46.171Z,4.71
2022-10-09T05:34:46.214Z,4.84
2022-10-09T05:35:46.089Z,4.77
2022-10-09T05:36:46.052Z,4.84
2022-10-09T05:37:46.032Z,4.77
2022-10-09T05:38:45.983Z,4.80
2022-10-09T05:39:46.009Z,4.78
2022-10-09T05:40:45.976Z,4.78
2022-10-09T05:41:45.874Z,4.84
2022-10-09T05:42:46.050Z,4.84
2022-10-09T05:43:45.795Z,4.74
2022-10-09T05:44:45.765Z,4.77
2022-10-09T05:45:45.752Z,4.78
2022-10-09T05:46:45.759Z,4.80
2022-10-09T05:47:45.694Z,4.87
2022-10-09T05:48:45.614Z,4.92
2022-10-09T05:49:45.689Z,4.92
2022-10-09T05:50:45.546Z,4.94
2022-10-09T05:51:45.562Z,4.92
2022-10-09T05:52:45.673Z,4.89
2022-10-09T05:53:45.438Z,4.96
2022-10-09T05:54:45.392Z,4.90
2022-10-09T05:55:45.364Z,4.93
2022-10-09T05:56:45.329Z,4.97
2022-10-09T05:57:45.284Z,4.93
2022-10-09T05:58:45.313Z,4.94
2022-10-09T05:59:45.272Z,5.08
2022-10-09T06:00:45.182Z,5.00
2022-10-09T06:01:45.235Z,5.08
2022-10-09T06:02:45.170Z,5.08
2022-10-09T06:03:45.111Z,5.08
2022-10-09T06:04:45.101Z,5.12
2022-10-09T06:05:44.997Z,5.17
2022-10-09T06:06:44.960Z,5.12
2022-10-09T06:07:44.925Z,5.14
2022-10-09T06:08:44.901Z,5.20
2022-10-09T06:09:44.861Z,5.17
2022-10-09T06:10:44.887Z,5.17
2022-10-09T06:11:44.788Z,5.25
2022-10-09T06:12:44.748Z,5.20
2022-10-09T06:13:44.718Z,5.29
2022-10-09T06:14:44.696Z,5.33
2022-10-09T06:15:44.646Z,5.32
2022-10-09T06:16:44.778Z,5.38
2022-10-09T06:17:44.567Z,5.43
2022-10-09T06:18:48.815Z,5.47
2022-10-09T06:19:44.495Z,5.44
2022-10-09T06:20:44.475Z,5.54
2022-10-09T06:21:44.423Z,5.54
2022-10-09T06:22:44.443Z,5.64
2022-10-09T06:23:44.355Z,5.69
2022-10-09T06:24:44.312Z,5.66
2022-10-09T06:25:44.281Z,5.76
2022-10-09T06:26:44.252Z,5.89
2022-10-09T06:27:44.278Z,5.84
2022-10-09T06:28:44.216Z,5.93
2022-10-09T06:29:44.147Z,5.98
2022-10-09T06:30:44.175Z,6.01
2022-10-09T06:31:44.063Z,6.08
2022-10-09T06:32:44.029Z,6.11
2022-10-09T06:33:44.055Z,6.11
2022-10-09T06:34:43.959Z,6.24
2022-10-09T06:35:43.918Z,6.27
2022-10-09T06:36:43.923Z,6.28
2022-10-09T06:37:43.846Z,6.41
2022-10-09T06:38:43.813Z,6.36
2022-10-09T06:39:43.831Z,6.49
2022-10-09T06:40:43.741Z,6.60
2022-10-09T06:41:43.707Z,6.67
2022-10-09T06:42:43.671Z,6.85
2022-10-09T06:43:43.635Z,6.95
2022-10-09T06:44:43.597Z,6.95
2022-10-09T06:45:43.694Z,7.11
2022-10-09T06:46:43.628Z,7.10
2022-10-09T06:47:43.494Z,7.15
2022-10-09T06:48:43.454Z,7.25
2022-10-09T06:49:43.424Z,7.35
2022-10-09T06:50:43.385Z,7.45
2022-10-09T06:51:43.423Z,7.45
2022-10-09T06:52:43.314Z,7.53
2022-10-09T06:53:43.282Z,7.53
2022-10-09T06:54:43.246Z,7.53
2022-10-09T06:55:43.207Z,7.69
2022-10-09T06:56:43.196Z,7.70
2022-10-09T06:57:43.197Z,7.75
2022-10-09T06:58:43.124Z,7.69
2022-10-09T06:59:43.078Z,7.75
2022-10-09T07:00:43.047Z,7.79
2022-10-09T07:01:43.049Z,7.76
2022-10-09T07:02:44.215Z,7.83
2022-10-09T07:03:42.994Z,7.94
2022-10-09T07:04:42.896Z,7.93
2022-10-09T07:05:42.856Z,7.98
2022-10-09T07:06:42.857Z,8.09
2022-10-09T07:07:42.789Z,8.03
2022-10-09T07:08:42.754Z,8.05
2022-10-09T07:09:43.245Z,8.12
2022-10-09T07:10:42.692Z,8.08
2022-10-09T07:11:42.650Z,8.10
2022-10-09T07:12:42.618Z,8.10
2022-10-09T07:13:42.585Z,8.18
2022-10-09T07:14:42.547Z,8.20
2022-10-09T07:15:42.651Z,8.16
2022-10-09T07:16:42.481Z,8.27
2022-10-09T07:17:42.540Z,8.31
2022-10-09T07:18:42.437Z,8.30
2022-10-09T07:19:42.431Z,8.28
2022-10-09T07:20:42.342Z,8.30
2022-10-09T07:21:42.300Z,8.48
2022-10-09T07:22:42.349Z,8.49
2022-10-09T07:23:42.308Z,8.42
2022-10-09T07:24:42.244Z,8.38
2022-10-09T07:25:42.171Z,8.52
2022-10-09T07:26:42.137Z,8.45
2022-10-09T07:27:42.094Z,8.53
2022-10-09T07:28:42.120Z,8.51
2022-10-09T07:29:42.139Z,8.48
2022-10-09T07:30:42.039Z,8.52
2022-10-09T07:31:41.982Z,8.55
2022-10-09T07:32:41.971Z,8.58
2022-10-09T07:33:41.894Z,8.61
2022-10-09T07:34:41.850Z,8.66
2022-10-09T07:35:41.883Z,8.69
2022-10-09T07:36:41.789Z,8.66
2022-10-09T07:37:41.750Z,8.74
2022-10-09T07:38:41.718Z,8.74
2022-10-09T07:39:44.849Z,8.85
2022-10-09T07:40:41.645Z,8.92
2022-10-09T07:41:41.672Z,8.97
2022-10-09T07:42:41.579Z,8.99
2022-10-09T07:43:41.543Z,8.94
2022-10-09T07:44:41.509Z,9.08
2022-10-09T07:45:41.473Z,8.97
2022-10-09T07:46:41.528Z,9.06
2022-10-09T07:47:41.405Z,9.13
2022-10-09T07:48:41.373Z,9.23
2022-10-09T07:49:41.426Z,9.26
2022-10-09T07:50:41.305Z,9.19
2022-10-09T07:51:41.271Z,9.25
2022-10-09T07:52:41.234Z,9.31
2022-10-09T07:53:41.238Z,9.31
2022-10-09T07:54:41.173Z,9.32
2022-10-09T07:55:42.020Z,9.40
2022-10-09T07:56:41.099Z,9.41
2022-10-09T07:57:41.066Z,9.56
2022-10-09T07:58:41.037Z,9.55
2022-10-09T07:59:40.995Z,9.59
2022-10-09T08:00:40.968Z,9.51
2022-10-09T08:01:41.051Z,9.61
2022-10-09T08:02:40.951Z,9.69
2022-10-09T08:03:40.899Z,9.73
2022-10-09T08:04:40.829Z,9.80
2022-10-09T08:05:40.790Z,9.73
2022-10-09T08:06:40.781Z,9.86
2022-10-09T08:07:40.790Z,9.87
2022-10-09T08:08:40.702Z,9.87
2022-10-09T08:09:40.659Z,9.94
2022-10-09T08:10:40.622Z,9.98
2022-10-09T08:11:40.690Z,10.01
2022-10-09T08:12:40.619Z,10.02
2022-10-09T08:13:40.541Z,10.01
2022-10-09T08:14:40.486Z,10.12
2022-10-09T08:15:40.530Z,10.09
2022-10-09T08:16:40.416Z,10.15
2022-10-09T08:17:40.399Z,10.15
2022-10-09T08:18:40.414Z,10.17
2022-10-09T08:19:40.315Z,10.19
2022-10-09T08:20:40.286Z,10.19
2022-10-09T08:21:40.246Z,10.26
2022-10-09T08:22:40.971Z,10.37
2022-10-09T08:23:40.197Z,10.33
2022-10-09T08:24:40.202Z,10.33
2022-10-09T08:25:40.190Z,10.48
2022-10-09T08:26:40.084Z,10.38
2022-10-09T08:27:40.052Z,10.49
2022-10-09T08:28:40.118Z,10.56
2022-10-09T08:29:40.431Z,10.56
2022-10-09T08:30:40.011Z,10.54
2022-10-09T08:31:39.968Z,10.60
2022-10-09T08:32:39.901Z,10.67
2022-10-09T08:33:39.842Z,10.64
2022-10-09T08:34:39.807Z,10.57
2022-10-09T08:35:39.784Z,10.63
2022-10-09T08:36:39.809Z,10.57
2022-10-09T08:37:39.708Z,10.63
2022-10-09T08:38:48.174Z,10.68
2022-10-09T08:39:39.648Z,10.67
2022-10-09T08:40:39.632Z,10.75
2022-10-09T08:41:39.575Z,10.75
2022-10-09T08:42:39.581Z,10.76
2022-10-09T08:43:39.575Z,10.86
2022-10-09T08:44:39.505Z,10.81
2022-10-09T08:45:39.449Z,10.79
2022-10-09T08:46:39.445Z,10.87
2022-10-09T08:47:39.373Z,10.92
2022-10-09T08:48:39.405Z,10.90
2022-10-09T08:49:39.312Z,10.93
2022-10-09T08:50:39.295Z,10.96
2022-10-09T08:51:39.253Z,11.02
2022-10-09T08:52:39.224Z,11.14
2022-10-09T08:53:39.226Z,11.17
2022-10-09T08:54:39.138Z,11.10
2022-10-09T08:55:39.117Z,11.25
2022-10-09T08:56:39.130Z,11.17
2022-10-09T08:57:39.059Z,11.17
2022-10-09T08:58:39.073Z,11.18
2022-10-09T08:59:38.982Z,11.22
2022-10-09T09:00:38.963Z,11.26
2022-10-09T09:01:38.938Z,11.17
2022-10-09T09:02:38.954Z,11.25
2022-10-09T09:03:38.908Z,11.25
2022-10-09T09:04:38.818Z,11.26
2022-10-09T09:05:38.776Z,11.27
2022-10-09T09:06:38.738Z,11.30
2022-10-09T09:07:38.706Z,11.36
2022-10-09T09:08:38.685Z,11.41
2022-10-09T09:09:38.736Z,11.45
2022-10-09T09:10:38.695Z,11.47
2022-10-09T09:11:38.577Z,11.47
2022-10-09T09:12:38.760Z,11.48
2022-10-09T09:13:40.488Z,11.55
2022-10-09T09:14:38.735Z,11.62
2022-10-09T09:15:38.636Z,11.52
2022-10-09T09:16:38.992Z,11.60
2022-10-09T09:17:42.864Z,11.68
2022-10-09T09:18:42.544Z,11.72
2022-10-09T09:19:38.374Z,11.78
2022-10-09T09:20:41.981Z,11.80
2022-10-09T09:21:38.328Z,11.86
2022-10-09T09:22:39.138Z,11.80
2022-10-09T09:23:38.194Z,11.90
2022-10-09T09:24:38.163Z,11.88
2022-10-09T09:25:38.127Z,11.95
2022-10-09T09:26:38.135Z,11.99
2022-10-09T09:27:38.043Z,12.09
2022-10-09T09:28:38.100Z,12.07
2022-10-09T09:29:38.070Z,12.22
2022-10-09T09:30:37.947Z,12.21
2022-10-09T09:31:38.051Z,12.13
2022-10-09T09:32:37.884Z,12.28
2022-10-09T09:33:41.116Z,12.29
2022-10-09T09:34:37.823Z,12.31
2022-10-09T09:35:37.866Z,12.37
2022-10-09T09:36:37.752Z,12.43
2022-10-09T09:37:37.722Z,12.43
2022-10-09T09:38:53.719Z,12.42
2022-10-09T09:40:31.247Z,12.43
2022-10-09T09:40:38.928Z,12.43
2022-10-09T09:41:37.646Z,12.36
2022-10-09T09:42:37.558Z,12.49
2022-10-09T09:43:37.539Z,12.46
2022-10-09T09:44:37.512Z,12.57
2022-10-09T09:45:37.516Z,12.53
2022-10-09T09:46:37.581Z,12.64
2022-10-09T09:47:37.538Z,12.70
2022-10-09T09:48:37.566Z,12.72
2022-10-09T09:49:37.492Z,12.79
2022-10-09T09:51:04.999Z,12.76
2022-10-09T09:51:37.571Z,12.68
2022-10-09T09:52:37.439Z,12.68
2022-10-09T09:53:37.508Z,12.65
2022-10-09T09:54:37.467Z,12.72
2022-10-09T09:55:37.411Z,12.70
2022-10-09T09:56:53.619Z,12.70
2022-10-09T09:57:38.093Z,12.82
2022-10-09T09:58:38.490Z,12.91
2022-10-09T09:59:37.016Z,12.93
2022-10-09T10:00:37.050Z,12.86
2022-10-09T10:01:37.057Z,12.91
2022-10-09T10:02:36.935Z,12.98
2022-10-09T10:03:36.880Z,13.05
2022-10-09T10:04:41.063Z,13.15
2022-10-09T10:05:36.812Z,13.27
2022-10-09T10:06:36.851Z,13.23
2022-10-09T10:07:36.748Z,13.18
2022-10-09T10:08:36.709Z,13.22
2022-10-09T10:09:36.699Z,13.16
2022-10-09T10:10:36.661Z,13.27
2022-10-09T10:11:36.626Z,13.30
2022-10-09T10:12:36.670Z,13.30
2022-10-09T10:13:36.558Z,13.28
2022-10-09T10:14:36.523Z,13.33
2022-10-09T10:15:36.489Z,13.41
2022-10-09T10:16:36.547Z,13.49
2022-10-09T10:17:36.480Z,13.47
2022-10-09T10:18:36.452Z,13.46
2022-10-09T10:19:36.370Z,13.47
2022-10-09T10:20:36.330Z,13.38
2022-10-09T10:21:36.298Z,13.50
2022-10-09T10:22:36.264Z,13.56
2022-10-09T10:23:36.235Z,13.68
2022-10-09T10:24:36.273Z,13.63
2022-10-09T10:25:38.998Z,13.74
2022-10-09T10:26:36.138Z,13.74
2022-10-09T10:27:36.125Z,13.79
2022-10-09T10:28:36.167Z,13.87
2022-10-09T10:29:36.047Z,13.90
2022-10-09T10:30:36.061Z,13.93
2022-10-09T10:31:36.050Z,13.96
2022-10-09T10:32:36.009Z,13.90
2022-10-09T10:33:36.009Z,13.90
2022-10-09T10:34:35.898Z,13.99
2022-10-09T10:35:35.868Z,14.10
2022-10-09T10:36:36.500Z,14.15
2022-10-09T10:37:35.823Z,14.25
2022-10-09T10:38:35.764Z,14.33
2022-10-09T10:39:35.793Z,14.44
2022-10-09T10:40:35.697Z,14.48
2022-10-09T10:41:35.669Z,14.60
2022-10-09T10:42:35.636Z,14.63
2022-10-09T10:43:35.622Z,14.68
2022-10-09T10:44:35.634Z,14.63
2022-10-09T10:45:35.552Z,14.65
2022-10-09T10:46:35.546Z,14.66
2022-10-09T10:47:35.479Z,14.70
2022-10-09T10:48:35.511Z,14.68
2022-10-09T10:49:35.416Z,14.55
2022-10-09T10:50:35.431Z,14.54
2022-10-09T10:51:35.350Z,14.54
2022-10-09T10:52:35.315Z,14.58
2022-10-09T10:53:35.289Z,14.50
2022-10-09T10:54:35.312Z,14.55
2022-10-09T10:55:35.222Z,14.50
2022-10-09T10:56:35.197Z,14.60
2022-10-09T10:57:35.175Z,14.66
2022-10-09T10:58:35.144Z,14.82
2022-10-09T10:59:35.119Z,14.85
2022-10-09T11:00:35.232Z,15.02
2022-10-09T11:01:35.070Z,15.07
2022-10-09T11:02:39.531Z,15.17
2022-10-09T11:03:35.035Z,15.24
2022-10-09T11:04:35.006Z,15.39
2022-10-09T11:05:35.009Z,15.28
2022-10-09T11:06:34.886Z,15.47
2022-10-09T11:07:34.872Z,15.49
2022-10-09T11:08:34.821Z,15.62
2022-10-09T11:09:34.803Z,15.70
2022-10-09T11:10:34.765Z,15.84
2022-10-09T11:11:34.800Z,15.90
2022-10-09T11:12:47.953Z,15.97
2022-10-09T11:13:34.676Z,16.12
2022-10-09T11:14:34.644Z,16.32
2022-10-09T11:15:34.623Z,16.28
2022-10-09T11:16:34.737Z,16.38
2022-10-09T11:17:43.663Z,16.43
2022-10-09T11:18:34.521Z,16.53
2022-10-09T11:19:34.569Z,16.53
2022-10-09T11:20:34.457Z,16.56
2022-10-09T11:21:34.493Z,16.57
2022-10-09T11:22:34.406Z,16.51
2022-10-09T11:23:34.369Z,16.53
2022-10-09T11:24:34.361Z,16.54
2022-10-09T11:25:34.303Z,16.46
2022-10-09T11:26:34.280Z,16.56
2022-10-09T11:27:34.300Z,16.49
2022-10-09T11:28:34.293Z,16.56
2022-10-09T11:29:34.243Z,16.43
2022-10-09T11:30:34.153Z,16.47
2022-10-09T11:31:34.194Z,16.46
2022-10-09T11:32:34.207Z,16.53
2022-10-09T11:33:34.087Z,16.58
2022-10-09T11:34:34.095Z,16.58
2022-10-09T11:35:34.009Z,16.57
2022-10-09T11:36:34.014Z,16.71
2022-10-09T11:37:33.971Z,16.79
2022-10-09T11:38:34.076Z,16.81
2022-10-09T11:39:33.889Z,16.87
2022-10-09T11:40:33.869Z,16.89
2022-10-09T11:41:33.884Z,16.78
2022-10-09T11:42:33.807Z,16.71
2022-10-09T11:43:33.778Z,16.60
2022-10-09T11:44:33.823Z,16.68
2022-10-09T11:45:33.734Z,16.66
2022-10-09T11:46:33.711Z,16.68
2022-10-09T11:47:33.657Z,16.75
2022-10-09T11:48:33.667Z,16.68
2022-10-09T11:49:33.600Z,16.78
2022-10-09T11:50:33.700Z,16.75
2022-10-09T11:51:33.567Z,16.64
2022-10-09T11:52:33.558Z,16.57
2022-10-09T11:53:33.477Z,16.54
2022-10-09T11:54:33.732Z,16.53
2022-10-09T11:55:33.424Z,16.68
2022-10-09T11:56:33.446Z,16.54
2022-10-09T11:57:33.436Z,16.61
2022-10-09T11:58:33.403Z,16.56
2022-10-09T11:59:33.304Z,16.51
2022-10-09T12:00:33.348Z,16.57
2022-10-09T12:01:33.333Z,16.54
2022-10-09T12:02:33.262Z,16.71
2022-10-09T12:03:33.203Z,16.68
2022-10-09T12:04:55.837Z,16.69
2022-10-09T12:05:33.127Z,16.57
2022-10-09T12:06:33.164Z,16.54
2022-10-09T12:07:33.129Z,16.50
2022-10-09T12:08:33.044Z,16.50
2022-10-09T12:09:33.015Z,16.39
2022-10-09T12:10:32.984Z,16.32
2022-10-09T12:11:32.958Z,16.21
2022-10-09T12:12:32.989Z,16.23
2022-10-09T12:13:32.896Z,16.21
2022-10-09T12:14:32.863Z,16.23
2022-10-09T12:15:32.831Z,16.21
2022-10-09T12:16:32.877Z,16.20
2022-10-09T12:17:32.770Z,16.16
2022-10-09T12:18:32.815Z,16.13
2022-10-09T12:19:32.720Z,16.12
2022-10-09T12:20:32.687Z,16.09
2022-10-09T12:21:32.658Z,16.09
2022-10-09T12:22:32.631Z,16.09
2022-10-09T12:23:32.910Z,16.08
2022-10-09T12:24:32.636Z,15.95
2022-10-09T12:25:32.538Z,15.91
2022-10-09T12:26:32.526Z,15.97
2022-10-09T12:27:32.478Z,15.98
2022-10-09T12:28:32.512Z,15.97
2022-10-09T12:29:32.412Z,15.88
2022-10-09T12:30:32.486Z,15.90
2022-10-09T12:31:32.448Z,15.86
2022-10-09T12:32:32.338Z,15.84
2022-10-09T12:33:32.296Z,15.84
2022-10-09T12:34:32.422Z,15.88
2022-10-09T12:35:32.240Z,15.90
2022-10-09T12:36:32.205Z,15.88
2022-10-09T12:37:32.178Z,15.80
2022-10-09T12:38:32.144Z,15.84
2022-10-09T12:39:32.120Z,15.79
2022-10-09T12:40:32.182Z,15.75
2022-10-09T12:41:32.058Z,15.67
2022-10-09T12:42:32.047Z,15.68
2022-10-09T12:43:32.028Z,15.59
2022-10-09T12:44:31.982Z,15.67
2022-10-09T12:45:32.000Z,15.59
2022-10-09T12:46:31.907Z,15.70
2022-10-09T12:47:31.873Z,15.64
2022-10-09T12:48:31.844Z,15.70
2022-10-09T12:49:31.830Z,15.73
2022-10-09T12:50:31.835Z,15.64
2022-10-09T12:51:31.760Z,15.68
2022-10-09T12:52:31.725Z,15.72
2022-10-09T12:53:31.701Z,15.72
2022-10-09T12:54:31.820Z,15.72
2022-10-09T12:55:31.716Z,15.72
2022-10-09T12:56:31.610Z,15.80
2022-10-09T12:57:31.575Z,15.80
2022-10-09T12:58:31.541Z,15.79
2022-10-09T12:59:31.508Z,15.79
2022-10-09T13:00:31.486Z,15.77
2022-10-09T13:01:31.620Z,15.79
2022-10-09T13:02:31.569Z,15.80
2022-10-09T13:03:31.393Z,15.76
2022-10-09T13:04:31.356Z,15.82
2022-10-09T13:05:31.327Z,15.75
2022-10-09T13:06:31.294Z,15.72
2022-10-09T13:07:32.057Z,15.64
2022-10-09T13:08:31.244Z,15.64